Rhodanus — PGBC — position and weather

sailwx.info

Track history (hours):
 
Tides and Currents Weather Stations Pressure Air Temp Water Temp Dewpoint Dewpoint Depression Visibility Wind Speed Wind Dir Waves Ship Positions

Rhodanus

Last reported at 2017-Sep-07 19:03 UTC. Time now 2017-Sep-23 18:25 UTC.
Position N 41°41' W 008°50'.
Warning: this ship's position is 15 days out of date.

Length 89 m; draft 4.5 m.

Type: Ship. MMSI: 245848000.

Date/timePositionNaut miles runAvg speedWind from/ knotsBaromVisibWave heightAir tempDewpointWater temp
2017-Sep-07 19:03N 41°41' W 008°50'0 0.0
2017-Sep-07 18:45N 41°41' W 008°50'0 0.0
2017-Sep-07 16:33N 41°41' W 008°50'0 0.0
2017-Sep-07 16:27N 41°41' W 008°50'  
2017-Sep-02 06:33N 48°54' W 005°49'73 8.5
2017-Sep-01 22:02N 49°57' W 004°53'0 8.7
2017-Sep-01 22:00N 49°57' W 004°53'7 9.2
2017-Sep-01 21:16N 50°03' W 004°48'2 9.3
2017-Sep-01 21:00N 50°05' W 004°46'5 9.3
2017-Sep-01 20:30N 50°09' W 004°43'5 9.5
2017-Sep-01 20:01N 50°14' W 004°41'7 0.1
2017-Aug-30 22:15N 50°20' W 004°38'1 4.5
2017-Aug-30 21:58N 50°19' W 004°38'0 0.5
2017-Aug-30 21:22N 50°19' W 004°38'0 0.0
2017-Aug-30 20:52N 50°19' W 004°38'0 0.0
2017-Aug-30 16:46N 50°19' W 004°38'0 0.1
2017-Aug-30 16:10N 50°19' W 004°38'0 0.0
2017-Aug-30 14:07N 50°19' W 004°38'2 4.6
2017-Aug-30 13:43N 50°17' W 004°38'1 6.2
2017-Aug-30 13:31N 50°15' W 004°38'3 6.6
2017-Aug-30 13:00N 50°12' W 004°38'3 6.5
2017-Aug-30 12:30N 50°09' W 004°41'3 6.9
2017-Aug-30 12:00N 50°06' W 004°43'130 5.9
2017-Aug-29 14:04N 52°10' W 005°51'0 8.4
2017-Aug-29 14:00N 52°10' W 005°51'7 8.4
2017-Aug-29 13:10N 52°17' W 005°49'3 8.4
2017-Aug-29 12:46N 52°20' W 005°48'3 8.3
2017-Aug-29 12:27N 52°23' W 005°48'102 9.8
2017-Aug-29 02:01N 54°04' W 005°22'0 9.5
2017-Aug-29 01:58N 54°05' W 005°22'6 9.5
2017-Aug-29 01:18N 54°11' W 005°20'3 9.5
2017-Aug-29 01:00N 54°14' W 005°19'5 9.7
2017-Aug-29 00:30N 54°18' W 005°18'510.0
2017-Aug-29 00:00N 54°23' W 005°17'510.2
2017-Aug-28 23:31N 54°28' W 005°15'510.0
2017-Aug-28 23:01N 54°33' W 005°17'510.2
2017-Aug-28 22:30N 54°38' W 005°20'5 9.8
2017-Aug-28 22:01N 54°42' W 005°24'5 9.6
2017-Aug-28 21:31N 54°46' W 005°29'5 9.4
2017-Aug-28 21:00N 54°50' W 005°33'5 9.0
2017-Aug-28 20:30N 54°54' W 005°37'4 8.5
2017-Aug-28 20:00N 54°58' W 005°41'4 8.2
2017-Aug-28 19:30N 55°01' W 005°45'  
Track history (hours):
 
Tides and Currents Weather Stations Pressure Air Temp Water Temp Dewpoint Dewpoint Depression Visibility Wind Speed Wind Dir Waves Ship Positions

Rhodanus

Last reported at 2017-Sep-07 19:03 UTC. Time now 2017-Sep-23 18:25 UTC.
Position N 41°41' W 008°50'.
Warning: this ship's position is 15 days out of date.

Length 89 m; draft 4.5 m.

Type: Ship. MMSI: 245848000.

Date/timePositionNaut miles runAvg speedWind from/ knotsBaromVisibWave heightAir tempDewpointWater temp
2017-Sep-07 19:03N 41°41' W 008°50'0 0.0
2017-Sep-07 18:45N 41°41' W 008°50'0 0.0
2017-Sep-07 16:33N 41°41' W 008°50'0 0.0
2017-Sep-07 16:27N 41°41' W 008°50'  
2017-Sep-02 06:33N 48°54' W 005°49'73 8.5
2017-Sep-01 22:02N 49°57' W 004°53'0 8.7
2017-Sep-01 22:00N 49°57' W 004°53'7 9.2
2017-Sep-01 21:16N 50°03' W 004°48'2 9.3
2017-Sep-01 21:00N 50°05' W 004°46'5 9.3
2017-Sep-01 20:30N 50°09' W 004°43'5 9.5
2017-Sep-01 20:01N 50°14' W 004°41'7 0.1
2017-Aug-30 22:15N 50°20' W 004°38'1 4.5
2017-Aug-30 21:58N 50°19' W 004°38'0 0.5
2017-Aug-30 21:22N 50°19' W 004°38'0 0.0
2017-Aug-30 20:52N 50°19' W 004°38'0 0.0
2017-Aug-30 16:46N 50°19' W 004°38'0 0.1
2017-Aug-30 16:10N 50°19' W 004°38'0 0.0
2017-Aug-30 14:07N 50°19' W 004°38'2 4.6
2017-Aug-30 13:43N 50°17' W 004°38'1 6.2
2017-Aug-30 13:31N 50°15' W 004°38'3 6.6
2017-Aug-30 13:00N 50°12' W 004°38'3 6.5
2017-Aug-30 12:30N 50°09' W 004°41'3 6.9
2017-Aug-30 12:00N 50°06' W 004°43'130 5.9
2017-Aug-29 14:04N 52°10' W 005°51'0 8.4
2017-Aug-29 14:00N 52°10' W 005°51'7 8.4
2017-Aug-29 13:10N 52°17' W 005°49'3 8.4
2017-Aug-29 12:46N 52°20' W 005°48'3 8.3
2017-Aug-29 12:27N 52°23' W 005°48'102 9.8
2017-Aug-29 02:01N 54°04' W 005°22'0 9.5
2017-Aug-29 01:58N 54°05' W 005°22'6 9.5
2017-Aug-29 01:18N 54°11' W 005°20'3 9.5
2017-Aug-29 01:00N 54°14' W 005°19'5 9.7
2017-Aug-29 00:30N 54°18' W 005°18'510.0
2017-Aug-29 00:00N 54°23' W 005°17'510.2
2017-Aug-28 23:31N 54°28' W 005°15'510.0
2017-Aug-28 23:01N 54°33' W 005°17'510.2
2017-Aug-28 22:30N 54°38' W 005°20'5 9.8
2017-Aug-28 22:01N 54°42' W 005°24'5 9.6
2017-Aug-28 21:31N 54°46' W 005°29'5 9.4
2017-Aug-28 21:00N 54°50' W 005°33'5 9.0
2017-Aug-28 20:30N 54°54' W 005°37'4 8.5
2017-Aug-28 20:00N 54°58' W 005°41'4 8.2
2017-Aug-28 19:30N 55°01' W 005°45'  

Dump ship's entire track history